sensor_id;sensor_type;location;lat;lon;timestamp;pressure;altitude;pressure_sealevel;temperature;humidity
12913;BME280;6524;51.368;11.984;2022-11-20T00:00:17;100059.56;;;-2.28;88.88
12913;BME280;6524;51.368;11.984;2022-11-20T00:05:17;100063.72;;;-2.33;88.26
12913;BME280;6524;51.368;11.984;2022-11-20T00:10:18;100059.38;;;-2.40;87.23
12913;BME280;6524;51.368;11.984;2022-11-20T00:15:18;100055.59;;;-2.64;87.61
12913;BME280;6524;51.368;11.984;2022-11-20T00:20:18;100048.50;;;-2.83;86.95
12913;BME280;6524;51.368;11.984;2022-11-20T00:25:19;100048.25;;;-2.98;88.83
12913;BME280;6524;51.368;11.984;2022-11-20T00:30:19;100039.69;;;-3.04;87.16
12913;BME280;6524;51.368;11.984;2022-11-20T00:35:19;100037.91;;;-3.08;87.84
12913;BME280;6524;51.368;11.984;2022-11-20T00:40:20;100039.59;;;-3.08;88.55
12913;BME280;6524;51.368;11.984;2022-11-20T00:45:20;100039.69;;;-3.04;89.38
12913;BME280;6524;51.368;11.984;2022-11-20T00:50:20;100029.22;;;-3.19;90.01
12913;BME280;6524;51.368;11.984;2022-11-20T00:55:21;100036.09;;;-3.15;90.22
12913;BME280;6524;51.368;11.984;2022-11-20T01:05:34;100033.66;;;-3.07;89.90
12913;BME280;6524;51.368;11.984;2022-11-20T01:10:35;100027.28;;;-3.32;90.17
12913;BME280;6524;51.368;11.984;2022-11-20T01:15:35;100036.94;;;-3.14;89.53
12913;BME280;6524;51.368;11.984;2022-11-20T01:20:37;100034.28;;;-3.20;87.65
12913;BME280;6524;51.368;11.984;2022-11-20T01:25:37;100027.31;;;-3.29;87.57
12913;BME280;6524;51.368;11.984;2022-11-20T01:30:37;100026.25;;;-3.42;88.38
12913;BME280;6524;51.368;11.984;2022-11-20T01:35:37;100024.47;;;-3.47;87.50
12913;BME280;6524;51.368;11.984;2022-11-20T01:40:38;100026.25;;;-3.42;88.74
12913;BME280;6524;51.368;11.984;2022-11-20T01:50:54;100020.25;;;-3.45;89.25
12913;BME280;6524;51.368;11.984;2022-11-20T01:55:56;100009.19;;;-3.46;87.62
12913;BME280;6524;51.368;11.984;2022-11-20T02:00:59;100001.50;;;-3.51;87.53
12913;BME280;6524;51.368;11.984;2022-11-20T05:00:43;99928.31;;;-3.58;93.02
12913;BME280;6524;51.368;11.984;2022-11-20T05:05:44;99930.00;;;-3.58;93.33
12913;BME280;6524;51.368;11.984;2022-11-20T05:10:44;99935.22;;;-3.52;92.88
12913;BME280;6524;51.368;11.984;2022-11-20T05:15:44;99923.47;;;-3.42;92.97
12913;BME280;6524;51.368;11.984;2022-11-20T05:20:44;99919.03;;;-3.56;93.91
12913;BME280;6524;51.368;11.984;2022-11-20T05:25:45;99919.84;;;-3.57;94.20
12913;BME280;6524;51.368;11.984;2022-11-20T05:30:45;99918.34;;;-3.45;94.55
12913;BME280;6524;51.368;11.984;2022-11-20T05:35:45;99920.22;;;-3.35;94.50
12913;BME280;6524;51.368;11.984;2022-11-20T05:40:46;99924.22;;;-3.50;94.42
12913;BME280;6524;51.368;11.984;2022-11-20T05:45:53;99918.22;;;-3.53;95.03
12913;BME280;6524;51.368;11.984;2022-11-20T05:50:57;99922.09;;;-3.74;94.97
12913;BME280;6524;51.368;11.984;2022-11-20T05:55:59;99913.03;;;-3.58;95.15
12913;BME280;6524;51.368;11.984;2022-11-20T06:01:09;99901.34;;;-3.46;94.67
12913;BME280;6524;51.368;11.984;2022-11-20T06:06:10;99903.03;;;-3.45;93.96
12913;BME280;6524;51.368;11.984;2022-11-20T06:11:12;99902.94;;;-3.52;94.37
12913;BME280;6524;51.368;11.984;2022-11-20T06:16:15;99900.59;;;-3.39;93.74
12913;BME280;6524;51.368;11.984;2022-11-20T06:21:20;99900.69;;;-3.35;93.73
12913;BME280;6524;51.368;11.984;2022-11-20T06:26:27;99898.88;;;-3.40;93.79
12913;BME280;6524;51.368;11.984;2022-11-20T06:31:27;99897.19;;;-3.40;93.27
12913;BME280;6524;51.368;11.984;2022-11-20T06:36:28;99884.44;;;-3.41;93.23
12913;BME280;6524;51.368;11.984;2022-11-20T06:41:28;99890.94;;;-3.59;94.44
12913;BME280;6524;51.368;11.984;2022-11-20T06:46:29;99903.13;;;-3.39;93.24
12913;BME280;6524;51.368;11.984;2022-11-20T06:51:29;99902.34;;;-3.37;92.82
12913;BME280;6524;51.368;11.984;2022-11-20T06:56:29;99903.19;;;-3.36;91.69
12913;BME280;6524;51.368;11.984;2022-11-20T07:01:30;99895.59;;;-3.33;91.62
12913;BME280;6524;51.368;11.984;2022-11-20T07:06:30;99905.09;;;-3.23;91.79
12913;BME280;6524;51.368;11.984;2022-11-20T07:11:31;99902.47;;;-3.28;92.41
12913;BME280;6524;51.368;11.984;2022-11-20T07:16:31;99903.44;;;-3.21;91.56
12913;BME280;6524;51.368;11.984;2022-11-20T07:21:32;99904.31;;;-3.19;90.81
12913;BME280;6524;51.368;11.984;2022-11-20T07:26:33;99907.78;;;-2.51;95.19
12913;BME280;6524;51.368;11.984;2022-11-20T07:31:33;99898.53;;;-2.42;91.04
12913;BME280;6524;51.368;11.984;2022-11-20T07:36:33;99896.13;;;-2.31;88.79
12913;BME280;6524;51.368;11.984;2022-11-20T07:41:34;99894.25;;;-2.46;87.90
12913;BME280;6524;51.368;11.984;2022-11-20T07:46:34;99889.16;;;-2.47;89.33
12913;BME280;6524;51.368;11.984;2022-11-20T07:51:35;99892.72;;;-2.30;89.27
12913;BME280;6524;51.368;11.984;2022-11-20T07:56:35;99883.44;;;-2.23;89.15
12913;BME280;6524;51.368;11.984;2022-11-20T08:01:35;99885.34;;;-2.04;90.72
12913;BME280;6524;51.368;11.984;2022-11-20T08:06:36;99872.66;;;-1.99;91.53
12913;BME280;6524;51.368;11.984;2022-11-20T08:11:36;99880.50;;;-1.78;91.31
12913;BME280;6524;51.368;11.984;2022-11-20T08:16:55;99886.63;;;-1.57;90.56
12913;BME280;6524;51.368;11.984;2022-11-20T08:21:56;99879.84;;;-1.55;90.79
12913;BME280;6524;51.368;11.984;2022-11-20T08:26:59;99881.72;;;-1.36;90.08
12913;BME280;6524;51.368;11.984;2022-11-20T08:32:00;99884.38;;;-1.21;90.54
12913;BME280;6524;51.368;11.984;2022-11-20T08:37:02;99883.59;;;-1.07;90.33
12913;BME280;6524;51.368;11.984;2022-11-20T08:42:06;99886.28;;;-0.94;89.53
12913;BME280;6524;51.368;11.984;2022-11-20T08:47:07;99880.34;;;-0.79;89.50
12913;BME280;6524;51.368;11.984;2022-11-20T08:52:07;99889.69;;;-0.90;89.09
12913;BME280;6524;51.368;11.984;2022-11-20T08:57:08;99887.31;;;-0.47;89.04
12913;BME280;6524;51.368;11.984;2022-11-20T09:02:08;99884.09;;;0.09;86.61
12913;BME280;6524;51.368;11.984;2022-11-20T09:07:09;99894.38;;;0.28;84.79
12913;BME280;6524;51.368;11.984;2022-11-20T09:12:09;99885.00;;;0.69;83.47
12913;BME280;6524;51.368;11.984;2022-11-20T09:17:10;99885.84;;;0.70;83.81
12913;BME280;6524;51.368;11.984;2022-11-20T09:22:13;99880.63;;;1.18;81.95
12913;BME280;6524;51.368;11.984;2022-11-20T09:27:14;99884.03;;;1.29;81.35
12913;BME280;6524;51.368;11.984;2022-11-20T09:32:14;99889.75;;;1.94;78.80
12913;BME280;6524;51.368;11.984;2022-11-20T09:37:14;99892.22;;;2.12;78.35
12913;BME280;6524;51.368;11.984;2022-11-20T09:47:50;99880.25;;;3.82;73.53
12913;BME280;6524;51.368;11.984;2022-11-20T09:53:04;99882.88;;;6.22;62.97
12913;BME280;6524;51.368;11.984;2022-11-20T09:58:16;99874.50;;;5.27;65.79
12913;BME280;6524;51.368;11.984;2022-11-20T10:03:30;99859.75;;;8.36;57.49
12913;BME280;6524;51.368;11.984;2022-11-20T10:29:36;99823.91;;;8.47;55.07
12913;BME280;6524;51.368;11.984;2022-11-20T10:34:52;99824.38;;;7.77;56.76
12913;BME280;6524;51.368;11.984;2022-11-20T10:40:01;99819.25;;;7.15;57.88
12913;BME280;6524;51.368;11.984;2022-11-20T10:50:29;99815.50;;;7.25;57.86
12913;BME280;6524;51.368;11.984;2022-11-20T10:55:40;99819.06;;;7.52;57.41
12913;BME280;6524;51.368;11.984;2022-11-20T11:00:42;99807.47;;;7.92;56.76
12913;BME280;6524;51.368;11.984;2022-11-20T11:06:10;99796.50;;;8.10;56.16
12913;BME280;6524;51.368;11.984;2022-11-20T11:11:20;99791.94;;;8.19;53.84
12913;BME280;6524;51.368;11.984;2022-11-20T11:16:25;99782.41;;;8.71;53.76
12913;BME280;6524;51.368;11.984;2022-11-20T11:21:26;99787.50;;;8.74;52.86
12913;BME280;6524;51.368;11.984;2022-11-20T11:26:27;99780.34;;;8.80;53.04
12913;BME280;6524;51.368;11.984;2022-11-20T11:31:33;99779.97;;;8.91;53.46
12913;BME280;6524;51.368;11.984;2022-11-20T11:36:35;99780.41;;;8.54;53.37
12913;BME280;6524;51.368;11.984;2022-11-20T11:41:35;99781.59;;;7.89;54.34
12913;BME280;6524;51.368;11.984;2022-11-20T11:46:36;99777.94;;;6.78;56.79
12913;BME280;6524;51.368;11.984;2022-11-20T11:57:01;99771.44;;;5.52;61.62
12913;BME280;6524;51.368;11.984;2022-11-20T12:02:16;99754.59;;;4.93;63.28
12913;BME280;6524;51.368;11.984;2022-11-20T12:07:39;99744.00;;;4.61;64.28
12913;BME280;6524;51.368;11.984;2022-11-20T12:12:44;99739.63;;;4.65;65.83
12913;BME280;6524;51.368;11.984;2022-11-20T12:17:46;99740.03;;;4.44;66.18
12913;BME280;6524;51.368;11.984;2022-11-20T12:23:04;99740.13;;;4.39;65.80
12913;BME280;6524;51.368;11.984;2022-11-20T12:28:38;99729.97;;;4.28;67.28
12913;BME280;6524;51.368;11.984;2022-11-20T12:33:58;99733.44;;;4.27;67.55
12913;BME280;6524;51.368;11.984;2022-11-20T12:39:22;99731.16;;;4.57;66.59
12913;BME280;6524;51.368;11.984;2022-11-20T13:01:21;99730.78;;;5.59;61.28
12913;BME280;6524;51.368;11.984;2022-11-20T13:06:56;99735.81;;;5.65;61.28
12913;BME280;6524;51.368;11.984;2022-11-20T13:17:40;99716.31;;;5.88;60.67
12913;BME280;6524;51.368;11.984;2022-11-20T13:22:54;99703.78;;;6.08;59.72
12913;BME280;6524;51.368;11.984;2022-11-20T13:28:27;99694.97;;;6.15;59.83
12913;BME280;6524;51.368;11.984;2022-11-20T13:33:55;99699.97;;;5.86;60.05
12913;BME280;6524;51.368;11.984;2022-11-20T13:39:01;99685.22;;;5.91;59.42
12913;BME280;6524;51.368;11.984;2022-11-20T13:49:42;99693.53;;;5.68;61.00
12913;BME280;6524;51.368;11.984;2022-11-20T13:55:16;99697.53;;;5.79;61.74
12913;BME280;6524;51.368;11.984;2022-11-20T14:00:47;99691.59;;;5.39;62.87
12913;BME280;6524;51.368;11.984;2022-11-20T14:06:31;99684.16;;;4.84;65.41
12913;BME280;6524;51.368;11.984;2022-11-20T14:11:53;99677.97;;;4.50;68.11
12913;BME280;6524;51.368;11.984;2022-11-20T14:17:20;99681.66;;;3.87;70.20
12913;BME280;6524;51.368;11.984;2022-11-20T14:22:26;99691.28;;;3.77;71.59
12913;BME280;6524;51.368;11.984;2022-11-20T14:28:01;99698.19;;;3.16;74.67
12913;BME280;6524;51.368;11.984;2022-11-20T14:33:26;99693.22;;;3.04;75.99
12913;BME280;6524;51.368;11.984;2022-11-20T14:44:04;99694.25;;;2.88;75.79
12913;BME280;6524;51.368;11.984;2022-11-20T14:49:05;99688.41;;;2.75;76.92
12913;BME280;6524;51.368;11.984;2022-11-20T14:54:10;99686.16;;;2.47;76.82
12913;BME280;6524;51.368;11.984;2022-11-20T14:59:11;99690.56;;;2.35;77.04
12913;BME280;6524;51.368;11.984;2022-11-20T15:04:11;99681.19;;;2.32;77.71
12913;BME280;6524;51.368;11.984;2022-11-20T15:09:14;99688.13;;;2.24;78.49
12913;BME280;6524;51.368;11.984;2022-11-20T15:14:14;99690.81;;;2.12;78.66
12913;BME280;6524;51.368;11.984;2022-11-20T15:19:20;99701.31;;;1.89;79.09
12913;BME280;6524;51.368;11.984;2022-11-20T15:24:21;99696.16;;;1.89;78.90
12913;BME280;6524;51.368;11.984;2022-11-20T15:29:23;99700.56;;;1.73;79.14
12913;BME280;6524;51.368;11.984;2022-11-20T15:34:23;99692.16;;;1.52;79.54
12913;BME280;6524;51.368;11.984;2022-11-20T15:39:24;99678.47;;;1.47;79.69
12913;BME280;6524;51.368;11.984;2022-11-20T15:44:24;99681.16;;;1.33;79.99
12913;BME280;6524;51.368;11.984;2022-11-20T15:49:25;99677.81;;;1.19;81.17
12913;BME280;6524;51.368;11.984;2022-11-20T15:54:25;99674.47;;;1.06;81.98
12913;BME280;6524;51.368;11.984;2022-11-20T15:59:26;99677.03;;;1.05;82.88
12913;BME280;6524;51.368;11.984;2022-11-20T16:04:26;99680.41;;;1.14;82.93
12913;BME280;6524;51.368;11.984;2022-11-20T16:09:26;99678.72;;;1.10;83.48
12913;BME280;6524;51.368;11.984;2022-11-20T16:14:27;99678.75;;;1.04;83.75
12913;BME280;6524;51.368;11.984;2022-11-20T16:19:46;99669.38;;;0.99;84.73
12913;BME280;6524;51.368;11.984;2022-11-20T16:24:46;99654.88;;;0.90;85.66
12913;BME280;6524;51.368;11.984;2022-11-20T16:29:47;99660.03;;;0.87;85.36
12913;BME280;6524;51.368;11.984;2022-11-20T16:34:47;99655.81;;;0.77;85.32
12913;BME280;6524;51.368;11.984;2022-11-20T16:39:48;99660.88;;;0.89;84.55
12913;BME280;6524;51.368;11.984;2022-11-20T16:44:48;99649.78;;;0.78;85.19
12913;BME280;6524;51.368;11.984;2022-11-20T16:49:49;99660.06;;;0.75;86.22
12913;BME280;6524;51.368;11.984;2022-11-20T16:54:49;99654.97;;;0.68;87.03
12913;BME280;6524;51.368;11.984;2022-11-20T16:59:50;99649.81;;;0.79;87.93
12913;BME280;6524;51.368;11.984;2022-11-20T17:04:53;99630.13;;;0.75;86.85
12913;BME280;6524;51.368;11.984;2022-11-20T17:09:54;99624.25;;;0.56;85.91
12913;BME280;6524;51.368;11.984;2022-11-20T17:14:55;99620.97;;;0.20;87.28
12913;BME280;6524;51.368;11.984;2022-11-20T17:19:56;99638.03;;;0.18;88.22
12913;BME280;6524;51.368;11.984;2022-11-20T17:24:56;99632.13;;;0.01;88.22
12913;BME280;6524;51.368;11.984;2022-11-20T17:29:57;99633.00;;;-0.03;89.96
12913;BME280;6524;51.368;11.984;2022-11-20T17:34:58;99635.53;;;0.02;89.25
12913;BME280;6524;51.368;11.984;2022-11-20T17:39:58;99630.44;;;-0.14;90.27
12913;BME280;6524;51.368;11.984;2022-11-20T17:45:01;99618.47;;;-0.10;89.87
12913;BME280;6524;51.368;11.984;2022-11-20T17:50:02;99614.19;;;-0.02;94.67
12913;BME280;6524;51.368;11.984;2022-11-20T17:55:06;99614.16;;;0.16;94.36
12913;BME280;6524;51.368;11.984;2022-11-20T18:00:07;99609.88;;;0.15;94.48
12913;BME280;6524;51.368;11.984;2022-11-20T18:05:13;99602.16;;;0.25;94.85
12913;BME280;6524;51.368;11.984;2022-11-20T18:10:14;99605.53;;;0.36;94.50
12913;BME280;6524;51.368;11.984;2022-11-20T18:15:17;99592.72;;;0.33;94.77
12913;BME280;6524;51.368;11.984;2022-11-20T18:20:21;99591.00;;;0.33;94.46
12913;BME280;6524;51.368;11.984;2022-11-20T18:25:22;99575.63;;;0.33;94.01
12913;BME280;6524;51.368;11.984;2022-11-20T18:30:22;99576.47;;;0.34;94.93
12913;BME280;6524;51.368;11.984;2022-11-20T18:35:22;99575.63;;;0.33;94.13
12913;BME280;6524;51.368;11.984;2022-11-20T18:40:26;99573.88;;;0.46;93.45
12913;BME280;6524;51.368;11.984;2022-11-20T18:45:29;99568.78;;;0.41;93.95
12913;BME280;6524;51.368;11.984;2022-11-20T18:50:36;99561.03;;;0.46;94.35
12913;BME280;6524;51.368;11.984;2022-11-20T18:55:37;99549.84;;;0.64;94.57
12913;BME280;6524;51.368;11.984;2022-11-20T19:00:38;99547.06;;;0.96;93.29
12913;BME280;6524;51.368;11.984;2022-11-20T19:05:38;99532.56;;;0.87;93.02
12913;BME280;6524;51.368;11.984;2022-11-20T19:10:39;99516.22;;;1.02;91.37
12913;BME280;6524;51.368;11.984;2022-11-20T19:15:39;99510.88;;;1.27;90.28
12913;BME280;6524;51.368;11.984;2022-11-20T19:20:39;99503.25;;;1.19;91.48
12913;BME280;6524;51.368;11.984;2022-11-20T19:25:40;99489.53;;;1.23;92.08
12913;BME280;6524;51.368;11.984;2022-11-20T19:30:40;99484.34;;;1.28;91.08
12913;BME280;6524;51.368;11.984;2022-11-20T19:35:41;99477.56;;;1.21;92.13
12913;BME280;6524;51.368;11.984;2022-11-20T19:40:42;99475.78;;;1.29;91.50
12913;BME280;6524;51.368;11.984;2022-11-20T19:45:42;99467.22;;;1.30;90.42
12913;BME280;6524;51.368;11.984;2022-11-20T19:50:43;99472.69;;;0.95;91.99
12913;BME280;6524;51.368;11.984;2022-11-20T19:55:57;99461.47;;;1.03;91.82
12913;BME280;6524;51.368;11.984;2022-11-20T20:01:08;99452.72;;;1.26;91.39
12913;BME280;6524;51.368;11.984;2022-11-20T20:06:20;99462.03;;;1.31;91.22
12913;BME280;6524;51.368;11.984;2022-11-20T20:11:22;99453.50;;;1.31;90.79
12913;BME280;6524;51.368;11.984;2022-11-20T20:16:24;99453.47;;;1.34;91.08
12913;BME280;6524;51.368;11.984;2022-11-20T20:21:26;99452.66;;;1.32;91.03
12913;BME280;6524;51.368;11.984;2022-11-20T20:26:28;99437.22;;;1.35;89.89
12913;BME280;6524;51.368;11.984;2022-11-20T20:31:30;99438.19;;;1.23;90.73
12913;BME280;6524;51.368;11.984;2022-11-20T20:36:31;99427.28;;;1.00;90.96
12913;BME280;6524;51.368;11.984;2022-11-20T20:41:32;99426.28;;;1.14;90.81
12913;BME280;6524;51.368;11.984;2022-11-20T20:46:32;99431.25;;;1.31;89.55
12913;BME280;6524;51.368;11.984;2022-11-20T20:51:33;99432.09;;;1.35;89.68
12913;BME280;6524;51.368;11.984;2022-11-20T20:56:34;99440.53;;;1.43;89.59
12913;BME280;6524;51.368;11.984;2022-11-20T21:01:34;99423.44;;;1.42;89.63
12913;BME280;6524;51.368;11.984;2022-11-20T21:06:34;99413.28;;;1.30;90.12
12913;BME280;6524;51.368;11.984;2022-11-20T21:11:35;99406.41;;;1.35;90.06
12913;BME280;6524;51.368;11.984;2022-11-20T21:16:35;99403.06;;;1.27;91.39
12913;BME280;6524;51.368;11.984;2022-11-20T21:21:43;99393.63;;;1.27;90.80
12913;BME280;6524;51.368;11.984;2022-11-20T21:27:00;99385.88;;;1.35;90.19
12913;BME280;6524;51.368;11.984;2022-11-20T21:32:00;99376.44;;;1.35;90.54
12913;BME280;6524;51.368;11.984;2022-11-20T21:37:01;99368.78;;;1.31;92.14
12913;BME280;6524;51.368;11.984;2022-11-20T21:42:01;99353.38;;;1.31;92.82
12913;BME280;6524;51.368;11.984;2022-11-20T21:47:02;99346.47;;;1.36;91.70
12913;BME280;6524;51.368;11.984;2022-11-20T21:52:02;99344.88;;;1.26;94.07
12913;BME280;6524;51.368;11.984;2022-11-20T21:57:02;99325.16;;;1.29;93.69
12913;BME280;6524;51.368;11.984;2022-11-20T22:02:03;99313.56;;;0.98;96.22
12913;BME280;6524;51.368;11.984;2022-11-20T22:07:06;99303.94;;;1.17;95.37
12913;BME280;6524;51.368;11.984;2022-11-20T22:12:07;99295.31;;;1.21;96.04
12913;BME280;6524;51.368;11.984;2022-11-20T22:17:11;99291.97;;;1.12;96.25
12913;BME280;6524;51.368;11.984;2022-11-20T22:22:12;99280.16;;;0.99;97.15
12913;BME280;6524;51.368;11.984;2022-11-20T22:27:12;99278.41;;;1.04;97.67
12913;BME280;6524;51.368;11.984;2022-11-20T22:32:13;99264.69;;;1.05;98.09
12913;BME280;6524;51.368;11.984;2022-11-20T22:37:13;99250.88;;;1.15;97.53
12913;BME280;6524;51.368;11.984;2022-11-20T22:42:13;99231.81;;;1.35;97.79
12913;BME280;6524;51.368;11.984;2022-11-20T22:47:14;99226.72;;;1.32;96.88
12913;BME280;6524;51.368;11.984;2022-11-20T22:52:14;99212.88;;;1.42;97.31
12913;BME280;6524;51.368;11.984;2022-11-20T22:57:14;99205.94;;;1.47;97.13
12913;BME280;6524;51.368;11.984;2022-11-20T23:02:15;99189.81;;;1.37;98.73
12913;BME280;6524;51.368;11.984;2022-11-20T23:07:15;99178.69;;;1.37;98.96
12913;BME280;6524;51.368;11.984;2022-11-20T23:12:15;99168.47;;;1.34;99.47
12913;BME280;6524;51.368;11.984;2022-11-20T23:17:16;99163.28;;;1.38;99.19
12913;BME280;6524;51.368;11.984;2022-11-20T23:22:17;99156.38;;;1.42;99.24
12913;BME280;6524;51.368;11.984;2022-11-20T23:27:18;99149.22;;;1.61;98.69
12913;BME280;6524;51.368;11.984;2022-11-20T23:32:18;99150.97;;;1.60;99.40
12913;BME280;6524;51.368;11.984;2022-11-20T23:37:18;99134.59;;;1.66;99.35
12913;BME280;6524;51.368;11.984;2022-11-20T23:42:19;99135.41;;;1.70;100.00
12913;BME280;6524;51.368;11.984;2022-11-20T23:47:19;99123.56;;;1.59;100.00
12913;BME280;6524;51.368;11.984;2022-11-20T23:52:19;99108.97;;;1.63;100.00
12913;BME280;6524;51.368;11.984;2022-11-20T23:57:21;99095.97;;;1.69;100.00
